createdAt,value
2022-12-07T00:01:58.239Z,94.80
2022-12-07T00:04:26.754Z,94.90
2022-12-07T00:06:55.851Z,94.90
2022-12-07T00:09:24.140Z,95.00
2022-12-07T00:11:53.873Z,95.00
2022-12-07T00:14:23.724Z,95.00
2022-12-07T00:16:53.478Z,95.00
2022-12-07T00:19:21.783Z,95.00
2022-12-07T00:21:50.289Z,95.00
2022-12-07T00:24:18.475Z,95.00
2022-12-07T00:26:46.723Z,95.00
2022-12-07T00:29:25.873Z,95.00
2022-12-07T00:31:54.288Z,95.00
2022-12-07T00:34:24.064Z,94.90
2022-12-07T00:36:52.771Z,94.90
2022-12-07T00:39:21.037Z,94.90
2022-12-07T00:41:49.315Z,94.90
2022-12-07T00:44:17.708Z,94.90
2022-12-07T00:46:47.605Z,94.80
2022-12-07T00:49:15.924Z,94.80
2022-12-07T00:51:44.161Z,94.80
2022-12-07T00:54:12.509Z,94.90
2022-12-07T00:56:40.786Z,94.80
2022-12-07T00:59:09.142Z,94.80
2022-12-07T01:01:38.799Z,94.80
2022-12-07T01:04:08.697Z,94.90
2022-12-07T01:06:37.351Z,94.90
2022-12-07T01:09:07.191Z,94.80
2022-12-07T01:11:35.825Z,94.90
2022-12-07T01:14:04.557Z,94.90
2022-12-07T01:16:34.601Z,94.90
2022-12-07T01:19:05.747Z,94.90
2022-12-07T01:21:38.311Z,94.90
2022-12-07T01:24:09.842Z,94.90
2022-12-07T01:26:38.120Z,94.90
2022-12-07T01:29:06.878Z,94.90
2022-12-07T01:31:35.419Z,94.90
2022-12-07T01:34:04.356Z,94.90
2022-12-07T01:36:37.599Z,95.00
2022-12-07T01:39:08.819Z,95.00
2022-12-07T01:41:41.434Z,95.00
2022-12-07T01:44:23.989Z,95.00
2022-12-07T01:46:53.552Z,94.90
2022-12-07T01:49:29.703Z,95.00
2022-12-07T01:52:10.062Z,94.90
2022-12-07T01:54:38.945Z,94.90
2022-12-07T01:57:10.359Z,94.90
2022-12-07T01:59:38.968Z,95.00
2022-12-07T02:02:20.679Z,95.00
2022-12-07T02:04:49.180Z,95.10
2022-12-07T02:07:19.299Z,95.10
2022-12-07T02:09:47.488Z,95.10
2022-12-07T02:12:15.801Z,95.10
2022-12-07T02:14:44.312Z,95.20
2022-12-07T02:17:20.555Z,95.10
2022-12-07T02:20:15.449Z,95.20
2022-12-07T02:23:12.189Z,95.10
2022-12-07T02:26:01.572Z,95.10
2022-12-07T02:28:33.748Z,95.10
2022-12-07T02:31:10.629Z,95.10
2022-12-07T02:33:43.946Z,95.10
2022-12-07T02:36:18.823Z,95.10
2022-12-07T02:38:54.238Z,95.10
2022-12-07T02:41:29.559Z,95.20
2022-12-07T02:44:01.062Z,95.20
2022-12-07T02:46:36.145Z,95.20
2022-12-07T02:49:05.440Z,95.20
2022-12-07T02:51:34.703Z,95.20
2022-12-07T02:54:03.379Z,95.10
2022-12-07T02:56:48.549Z,95.10
2022-12-07T02:59:27.519Z,95.20
2022-12-07T03:02:11.184Z,95.20
2022-12-07T03:04:48.745Z,95.20
2022-12-07T03:07:28.141Z,95.20
2022-12-07T03:10:03.742Z,95.30
2022-12-07T03:12:39.650Z,95.30
2022-12-07T03:15:14.454Z,95.30
2022-12-07T03:17:47.655Z,95.30
2022-12-07T03:20:21.309Z,95.30
2022-12-07T03:22:50.138Z,95.30
2022-12-07T03:25:20.355Z,95.30
2022-12-07T03:27:56.901Z,95.20
2022-12-07T03:30:30.797Z,95.20
2022-12-07T03:33:05.811Z,95.10
2022-12-07T03:35:37.771Z,95.10
2022-12-07T03:38:17.834Z,95.10
2022-12-07T03:40:51.659Z,95.00
2022-12-07T03:43:21.028Z,95.10
2022-12-07T03:46:04.177Z,95.00
2022-12-07T03:48:39.549Z,94.90
2022-12-07T03:51:15.549Z,94.90
2022-12-07T03:53:52.907Z,94.90
2022-12-07T03:56:21.837Z,94.90
2022-12-07T03:58:50.880Z,95.00
2022-12-07T04:01:20.689Z,95.00
2022-12-07T04:03:50.379Z,95.00
2022-12-07T04:06:18.762Z,95.00
2022-12-07T04:08:47.085Z,95.00
2022-12-07T04:11:15.318Z,95.10
2022-12-07T04:14:00.992Z,95.10
2022-12-07T04:16:29.288Z,95.10
2022-12-07T04:18:58.874Z,95.10
2022-12-07T04:21:27.232Z,95.20
2022-12-07T04:23:55.631Z,95.20
2022-12-07T04:26:23.900Z,95.20
2022-12-07T04:28:52.293Z,95.20
2022-12-07T04:31:20.550Z,95.20
2022-12-07T04:33:48.809Z,95.10
2022-12-07T04:36:20.773Z,95.10
2022-12-07T04:38:49.040Z,95.10
2022-12-07T04:41:17.319Z,95.00
2022-12-07T04:43:45.537Z,95.00
2022-12-07T04:46:13.770Z,95.00
2022-12-07T04:48:42.069Z,95.00
2022-12-07T04:51:10.289Z,94.90
2022-12-07T04:53:39.838Z,94.90
2022-12-07T04:56:08.685Z,94.90
2022-12-07T04:58:36.899Z,94.70
2022-12-07T05:01:05.438Z,94.80
2022-12-07T05:03:33.676Z,94.70
2022-12-07T05:06:01.861Z,94.80
2022-12-07T05:08:30.161Z,94.80
2022-12-07T05:10:59.940Z,94.80
2022-12-07T05:13:28.323Z,94.90
2022-12-07T05:15:56.672Z,94.90
2022-12-07T05:18:25.108Z,95.00
2022-12-07T05:20:53.994Z,94.90
2022-12-07T05:23:22.352Z,95.00
2022-12-07T05:25:51.002Z,95.00
2022-12-07T05:28:20.538Z,95.00
2022-12-07T05:30:48.814Z,95.10
2022-12-07T05:33:17.059Z,95.10
2022-12-07T05:35:45.316Z,95.10
2022-12-07T05:38:13.557Z,95.10
2022-12-07T05:40:41.796Z,95.20
2022-12-07T05:43:10.168Z,95.20
2022-12-07T05:45:39.945Z,95.20
2022-12-07T05:48:08.579Z,95.20
2022-12-07T05:50:36.811Z,95.20
2022-12-07T05:53:05.024Z,95.30
2022-12-07T05:55:33.239Z,95.20
2022-12-07T05:58:18.792Z,95.20
2022-12-07T06:00:51.371Z,95.20
2022-12-07T06:03:21.672Z,95.20
2022-12-07T06:05:50.244Z,95.20
2022-12-07T06:08:18.555Z,95.20
2022-12-07T06:10:47.112Z,95.20
2022-12-07T06:13:14.326Z,95.10
2022-12-07T06:15:42.568Z,95.10
2022-12-07T06:18:12.244Z,95.10
2022-12-07T06:20:40.450Z,95.00
2022-12-07T06:23:08.683Z,95.00
2022-12-07T06:25:36.877Z,94.90
2022-12-07T06:28:05.156Z,94.90
2022-12-07T06:30:33.336Z,94.90
2022-12-07T06:33:01.547Z,94.80
2022-12-07T06:35:31.331Z,94.80
2022-12-07T06:37:59.602Z,94.80
2022-12-07T06:40:27.867Z,94.70
2022-12-07T06:42:56.042Z,94.80
2022-12-07T06:45:24.505Z,94.80
2022-12-07T06:47:52.703Z,94.70
2022-12-07T06:50:21.215Z,94.80
2022-12-07T06:52:50.882Z,94.70
2022-12-07T06:55:19.127Z,94.80
2022-12-07T06:57:47.449Z,94.80
2022-12-07T07:00:21.718Z,94.80
2022-12-07T07:02:50.532Z,94.70
2022-12-07T07:05:18.884Z,94.70
2022-12-07T07:08:20.219Z,94.60
2022-12-07T07:10:37.924Z,94.60
2022-12-07T07:13:06.707Z,94.60
2022-12-07T07:15:36.175Z,94.60
2022-12-07T07:18:07.868Z,94.50
2022-12-07T07:20:36.825Z,94.50
2022-12-07T07:23:05.191Z,94.60
2022-12-07T07:25:33.848Z,94.60
2022-12-07T07:28:04.703Z,94.60
2022-12-07T07:30:33.163Z,94.60
2022-12-07T07:33:02.968Z,94.60
2022-12-07T07:35:33.175Z,94.70
2022-12-07T07:38:01.786Z,94.70
2022-12-07T07:40:30.843Z,94.80
2022-12-07T07:43:00.082Z,94.80
2022-12-07T07:45:31.805Z,94.90
2022-12-07T07:48:00.144Z,94.90
2022-12-07T07:50:29.239Z,95.00
2022-12-07T07:52:59.437Z,95.00
2022-12-07T07:55:27.665Z,95.00
2022-12-07T07:57:56.819Z,95.00
2022-12-07T08:00:26.011Z,95.00
2022-12-07T08:02:55.669Z,95.10
2022-12-07T08:05:24.416Z,95.10
2022-12-07T08:07:52.691Z,95.10
2022-12-07T08:10:21.343Z,95.10
2022-12-07T08:13:07.123Z,95.10
2022-12-07T08:15:35.763Z,95.10
2022-12-07T08:18:05.567Z,95.00
2022-12-07T08:20:34.731Z,95.00
2022-12-07T08:23:03.274Z,95.00
2022-12-07T08:25:32.464Z,95.10
2022-12-07T08:28:01.477Z,95.10
2022-12-07T08:30:30.675Z,95.10
2022-12-07T08:32:59.616Z,95.20
2022-12-07T08:35:29.488Z,95.30
2022-12-07T08:37:58.915Z,95.30
2022-12-07T08:40:27.473Z,95.40
2022-12-07T08:42:55.953Z,95.40
2022-12-07T08:45:27.428Z,95.30
2022-12-07T08:48:03.557Z,95.20
2022-12-07T08:50:34.819Z,95.20
2022-12-07T08:53:05.493Z,95.10
2022-12-07T08:55:35.598Z,95.00
2022-12-07T08:58:04.965Z,94.90
2022-12-07T09:00:33.293Z,94.70
2022-12-07T09:03:01.504Z,94.60
2022-12-07T09:05:29.907Z,94.50
2022-12-07T09:08:03.025Z,94.40
2022-12-07T09:10:32.072Z,94.40
2022-12-07T09:13:01.889Z,94.40
2022-12-07T09:15:30.280Z,94.30
2022-12-07T09:17:58.548Z,94.20
2022-12-07T09:20:28.259Z,94.20
2022-12-07T09:22:56.944Z,94.20
2022-12-07T09:25:27.396Z,93.90
2022-12-07T09:27:59.387Z,93.60
2022-12-07T09:30:29.327Z,93.50
2022-12-07T09:32:59.252Z,93.60
2022-12-07T09:35:28.092Z,93.40
2022-12-07T09:37:56.506Z,93.40
2022-12-07T09:40:27.261Z,93.50
2022-12-07T09:42:57.964Z,93.20
2022-12-07T09:45:32.976Z,93.30
2022-12-07T09:48:01.817Z,93.10
2022-12-07T09:50:31.092Z,92.80
2022-12-07T09:53:10.764Z,92.50
2022-12-07T09:55:43.316Z,92.20
2022-12-07T09:58:20.436Z,92.00
2022-12-07T10:00:48.987Z,92.40
2022-12-07T10:03:17.481Z,92.40
2022-12-07T10:05:49.454Z,92.00
2022-12-07T10:08:18.456Z,92.00
2022-12-07T10:10:53.214Z,91.80
2022-12-07T10:13:23.820Z,91.60
2022-12-07T10:15:55.869Z,91.50
2022-12-07T10:18:31.559Z,91.50
2022-12-07T10:21:13.527Z,91.60
2022-12-07T10:23:44.813Z,91.60
2022-12-07T10:26:35.854Z,91.70
2022-12-07T10:29:23.910Z,92.00
2022-12-07T10:31:58.904Z,91.80
2022-12-07T10:34:33.185Z,91.70
2022-12-07T10:37:21.603Z,91.50
2022-12-07T10:39:52.331Z,91.60
2022-12-07T10:42:25.222Z,91.40
2022-12-07T10:45:15.696Z,91.40
2022-12-07T10:47:50.445Z,91.90
2022-12-07T10:50:46.117Z,91.70
2022-12-07T10:53:42.321Z,91.40
2022-12-07T10:56:51.181Z,91.40
2022-12-07T10:59:45.927Z,91.30
2022-12-07T11:02:34.260Z,91.60
2022-12-07T11:05:16.651Z,91.80
2022-12-07T11:07:57.578Z,91.80
2022-12-07T11:10:40.595Z,91.90
2022-12-07T11:13:29.444Z,91.30
2022-12-07T11:16:27.137Z,90.90
2022-12-07T11:19:27.953Z,90.90
2022-12-07T11:21:59.274Z,90.90
2022-12-07T11:24:37.484Z,91.00
2022-12-07T11:27:23.776Z,90.80
2022-12-07T11:30:18.055Z,90.40
2022-12-07T11:33:04.571Z,90.10
2022-12-07T11:35:58.005Z,90.30
2022-12-07T11:38:33.624Z,90.10
2022-12-07T11:41:14.802Z,90.10
2022-12-07T11:43:57.883Z,90.10
2022-12-07T11:46:31.205Z,90.10
2022-12-07T11:49:12.693Z,89.10
2022-12-07T11:51:46.096Z,88.30
2022-12-07T11:54:20.626Z,88.30
2022-12-07T11:56:52.228Z,88.70
2022-12-07T11:59:26.658Z,88.20
2022-12-07T12:01:59.356Z,87.90
2022-12-07T12:04:44.436Z,88.20
2022-12-07T12:10:18.947Z,88.60
2022-12-07T12:16:22.945Z,88.40
2022-12-07T12:19:13.816Z,87.80
2022-12-07T12:21:44.866Z,87.80
2022-12-07T12:24:19.185Z,88.30
2022-12-07T12:26:54.526Z,88.00
2022-12-07T12:29:29.924Z,87.90
2022-12-07T12:32:17.786Z,88.30
2022-12-07T12:35:04.455Z,88.20
2022-12-07T12:37:47.895Z,87.70
2022-12-07T12:40:50.705Z,88.00
2022-12-07T12:43:50.303Z,88.60
2022-12-07T12:46:52.172Z,88.80
2022-12-07T12:49:39.496Z,88.90
2022-12-07T12:52:58.746Z,89.00
2022-12-07T12:56:12.746Z,88.80
2022-12-07T12:58:46.988Z,88.20
2022-12-07T13:01:41.217Z,87.90
2022-12-07T13:04:41.082Z,88.20
2022-12-07T13:07:15.780Z,88.50
2022-12-07T13:09:47.651Z,88.10
2022-12-07T13:12:18.385Z,87.40
2022-12-07T13:15:01.048Z,87.80
2022-12-07T13:17:59.791Z,88.00
2022-12-07T13:20:58.961Z,88.10
2022-12-07T13:23:35.106Z,87.90
2022-12-07T13:26:24.240Z,88.00
2022-12-07T13:28:55.211Z,88.30
2022-12-07T13:31:35.035Z,88.00
2022-12-07T13:34:04.892Z,88.10
2022-12-07T13:36:38.589Z,87.90
2022-12-07T13:39:25.720Z,88.00
2022-12-07T13:41:57.831Z,88.60
2022-12-07T13:44:27.297Z,88.00
2022-12-07T13:47:03.372Z,88.00
2022-12-07T13:49:34.605Z,88.00
2022-12-07T13:52:19.743Z,88.50
2022-12-07T13:54:50.830Z,88.40
2022-12-07T13:57:20.543Z,88.20
2022-12-07T13:59:49.376Z,88.10
2022-12-07T14:02:23.237Z,88.00
2022-12-07T14:04:52.872Z,88.80
2022-12-07T14:07:25.575Z,88.50
2022-12-07T14:10:02.624Z,88.50
2022-12-07T14:12:34.535Z,88.60
2022-12-07T14:15:05.616Z,88.30
2022-12-07T14:17:34.315Z,88.50
2022-12-07T14:20:05.471Z,88.40
2022-12-07T14:22:35.978Z,88.20
2022-12-07T14:25:20.147Z,88.50
2022-12-07T14:27:59.536Z,87.80
2022-12-07T14:30:31.175Z,87.80
2022-12-07T14:33:02.294Z,88.20
2022-12-07T14:35:31.100Z,88.00
2022-12-07T14:38:00.440Z,88.40
2022-12-07T14:40:31.468Z,89.00
2022-12-07T14:43:05.094Z,89.10
2022-12-07T14:45:33.784Z,89.60
2022-12-07T14:53:49.849Z,89.10
2022-12-07T14:56:21.960Z,89.30
2022-12-07T14:58:51.577Z,89.40
2022-12-07T15:01:19.915Z,89.20
2022-12-07T15:03:48.286Z,89.10
2022-12-07T15:06:19.458Z,89.50
2022-12-07T15:08:47.895Z,89.50
2022-12-07T15:11:16.962Z,89.70
2022-12-07T15:14:03.168Z,89.50
2022-12-07T15:17:06.394Z,89.60
2022-12-07T15:19:28.469Z,89.60
2022-12-07T15:21:59.376Z,90.00
2022-12-07T15:24:28.262Z,89.90
2022-12-07T15:26:56.527Z,90.00
2022-12-07T15:29:25.134Z,90.10
2022-12-07T15:31:57.869Z,90.00
2022-12-07T15:34:31.877Z,90.30
2022-12-07T15:37:04.904Z,90.30
2022-12-07T15:39:33.436Z,90.30
2022-12-07T15:42:01.967Z,90.40
2022-12-07T15:44:47.574Z,90.20
2022-12-07T15:47:17.273Z,90.40
2022-12-07T15:49:45.807Z,90.50
2022-12-07T15:52:14.211Z,90.50
2022-12-07T15:54:42.465Z,90.60
2022-12-07T15:57:10.710Z,90.50
2022-12-07T15:59:38.945Z,90.70
2022-12-07T16:02:07.437Z,90.70
2022-12-07T16:04:37.204Z,90.50
2022-12-07T16:07:05.792Z,90.70
2022-12-07T16:09:34.481Z,90.60
2022-12-07T16:12:02.711Z,90.70
2022-12-07T16:14:33.119Z,90.80
2022-12-07T16:17:05.392Z,91.10
2022-12-07T16:19:34.630Z,91.30
2022-12-07T16:22:05.635Z,91.40
2022-12-07T16:24:34.121Z,91.60
2022-12-07T16:27:02.697Z,91.70
2022-12-07T16:29:30.973Z,91.80
2022-12-07T16:31:59.240Z,91.60
2022-12-07T16:34:27.549Z,91.70
2022-12-07T16:37:03.770Z,91.70
2022-12-07T16:39:35.618Z,91.80
2022-12-07T16:42:05.866Z,92.00
2022-12-07T16:44:34.116Z,92.00
2022-12-07T16:47:02.791Z,92.00
2022-12-07T16:49:31.363Z,92.10
2022-12-07T16:54:50.726Z,92.20
2022-12-07T16:57:23.333Z,92.30
2022-12-07T16:59:52.488Z,92.30
2022-12-07T17:02:21.656Z,92.30
2022-12-07T17:04:50.103Z,92.30
2022-12-07T17:07:18.522Z,92.30
2022-12-07T17:09:47.028Z,92.40
2022-12-07T17:12:16.787Z,92.30
2022-12-07T17:15:02.920Z,92.30
2022-12-07T17:17:31.446Z,92.20
2022-12-07T17:19:59.931Z,92.30
2022-12-07T17:22:28.213Z,92.30
2022-12-07T17:24:59.101Z,92.30
2022-12-07T17:27:28.881Z,92.30
2022-12-07T17:29:57.268Z,92.10
2022-12-07T17:32:25.513Z,92.00
2022-12-07T17:34:53.752Z,92.10
2022-12-07T17:37:22.084Z,91.90
2022-12-07T17:39:50.592Z,92.00
2022-12-07T17:42:36.254Z,92.00
2022-12-07T17:45:06.856Z,91.80
2022-12-07T17:47:35.265Z,91.90
2022-12-07T17:50:07.304Z,91.90
2022-12-07T17:52:57.732Z,91.90
2022-12-07T17:55:26.403Z,92.00
2022-12-07T17:57:54.785Z,91.90
2022-12-07T18:00:24.954Z,91.80
2022-12-07T18:02:53.309Z,91.80
2022-12-07T18:05:22.006Z,91.80
2022-12-07T18:07:50.353Z,92.00
2022-12-07T18:10:18.936Z,91.90
2022-12-07T18:12:51.818Z,91.90
2022-12-07T18:15:20.851Z,91.90
2022-12-07T18:17:52.024Z,91.90
2022-12-07T18:20:20.513Z,92.00
2022-12-07T18:22:48.765Z,92.00
2022-12-07T18:25:17.091Z,92.00
2022-12-07T18:27:45.326Z,91.90
2022-12-07T18:30:14.786Z,91.80
2022-12-07T18:32:43.143Z,91.90
2022-12-07T18:35:12.892Z,91.90
2022-12-07T18:37:42.698Z,92.00
2022-12-07T18:40:13.347Z,92.00
2022-12-07T18:42:41.621Z,92.10
2022-12-07T18:45:10.987Z,92.10
2022-12-07T18:47:39.237Z,92.20
2022-12-07T18:50:09.265Z,92.30
2022-12-07T18:52:39.108Z,92.30
2022-12-07T18:55:08.800Z,92.30
2022-12-07T18:57:37.090Z,92.30
2022-12-07T19:00:07.680Z,92.40
2022-12-07T19:02:36.627Z,92.40
2022-12-07T19:05:05.587Z,92.30
2022-12-07T19:07:34.100Z,92.40
2022-12-07T19:10:03.935Z,92.40
2022-12-07T19:12:32.639Z,92.50
2022-12-07T19:15:01.587Z,92.60
2022-12-07T19:17:30.199Z,92.60
2022-12-07T19:19:58.731Z,92.60
2022-12-07T19:22:27.155Z,92.60
2022-12-07T19:24:56.824Z,92.50
2022-12-07T19:27:27.519Z,92.60
2022-12-07T19:29:56.049Z,92.60
2022-12-07T19:32:24.487Z,92.60
2022-12-07T19:34:53.022Z,92.60
2022-12-07T19:37:21.407Z,92.60
2022-12-07T19:39:51.953Z,92.60
2022-12-07T19:42:20.791Z,92.70
2022-12-07T19:44:50.677Z,92.50
2022-12-07T19:47:19.189Z,92.50
2022-12-07T19:49:47.590Z,92.60
2022-12-07T19:52:16.317Z,92.50
2022-12-07T19:54:44.688Z,92.40
2022-12-07T19:57:16.081Z,92.40
2022-12-07T19:59:46.310Z,92.40
2022-12-07T20:02:17.107Z,92.50
2022-12-07T20:04:45.715Z,92.60
2022-12-07T20:07:13.954Z,92.60
2022-12-07T20:09:42.616Z,92.60
2022-12-07T20:12:29.465Z,92.50
2022-12-07T20:14:59.366Z,92.60
2022-12-07T20:17:29.229Z,92.60
2022-12-07T20:19:57.600Z,92.60
2022-12-07T20:22:26.092Z,92.60
2022-12-07T20:24:54.472Z,92.50
2022-12-07T20:27:22.779Z,92.50
2022-12-07T20:29:51.356Z,92.50
2022-12-07T20:32:19.804Z,92.60
2022-12-07T20:34:49.649Z,92.60
2022-12-07T20:37:19.161Z,92.70
2022-12-07T20:39:49.457Z,92.70
2022-12-07T20:42:35.017Z,92.70
2022-12-07T20:45:04.110Z,92.80
2022-12-07T20:47:33.270Z,92.80
2022-12-07T20:50:03.238Z,92.70
2022-12-07T20:52:32.190Z,92.80
2022-12-07T20:55:00.940Z,92.80
2022-12-07T20:57:29.229Z,92.80
2022-12-07T20:59:57.523Z,92.80
2022-12-07T21:02:26.300Z,92.80
2022-12-07T21:04:55.987Z,92.80
2022-12-07T21:07:26.099Z,92.80
2022-12-07T21:09:54.820Z,92.80
2022-12-07T21:12:23.038Z,92.80
2022-12-07T21:14:51.430Z,92.80
2022-12-07T21:17:19.938Z,92.80
2022-12-07T21:19:48.512Z,92.90
2022-12-07T21:22:16.961Z,92.80
2022-12-07T21:24:46.730Z,92.80
2022-12-07T21:27:15.038Z,92.60
2022-12-07T21:29:45.132Z,92.50
2022-12-07T21:32:15.478Z,92.40
2022-12-07T21:34:43.885Z,92.30
2022-12-07T21:37:12.200Z,92.30
2022-12-07T21:39:40.527Z,92.20
2022-12-07T21:42:10.181Z,92.10
2022-12-07T21:44:38.538Z,92.00
2022-12-07T21:47:07.415Z,92.10
2022-12-07T21:49:36.443Z,92.20
2022-12-07T21:52:05.214Z,92.10
2022-12-07T21:54:34.175Z,92.10
2022-12-07T21:57:02.564Z,92.00
2022-12-07T21:59:32.228Z,92.00
2022-12-07T22:02:00.573Z,92.00
2022-12-07T22:04:29.255Z,91.90
2022-12-07T22:06:59.768Z,91.90
2022-12-07T22:09:30.908Z,92.00
2022-12-07T22:11:59.076Z,92.00
2022-12-07T22:14:44.689Z,91.90
2022-12-07T22:17:14.271Z,91.90
2022-12-07T22:19:42.720Z,92.00
2022-12-07T22:22:15.623Z,91.90
2022-12-07T22:24:44.341Z,91.90
2022-12-07T22:27:13.053Z,91.80
2022-12-07T22:29:41.400Z,91.90
2022-12-07T22:32:39.925Z,92.00
2022-12-07T22:34:59.432Z,92.00
2022-12-07T22:37:29.042Z,91.90
2022-12-07T22:39:57.351Z,92.00
2022-12-07T22:42:26.446Z,91.90
2022-12-07T22:44:54.827Z,91.90
2022-12-07T22:47:23.248Z,91.90
2022-12-07T22:49:51.904Z,91.90
2022-12-07T22:52:21.628Z,91.90
2022-12-07T22:54:49.836Z,91.90
2022-12-07T22:57:18.071Z,92.00
2022-12-07T22:59:46.452Z,92.00
2022-12-07T23:02:14.640Z,92.20
2022-12-07T23:04:43.037Z,92.10
2022-12-07T23:07:11.420Z,92.10
2022-12-07T23:09:41.062Z,92.10
2022-12-07T23:12:28.283Z,92.10
2022-12-07T23:14:56.534Z,92.10
2022-12-07T23:17:24.823Z,92.10
2022-12-07T23:19:56.019Z,92.10
2022-12-07T23:22:24.958Z,92.30
2022-12-07T23:24:54.822Z,92.30
2022-12-07T23:27:23.424Z,92.20
2022-12-07T23:29:51.853Z,92.30
2022-12-07T23:32:20.188Z,92.20
2022-12-07T23:34:48.341Z,92.30
2022-12-07T23:37:16.595Z,92.20
2022-12-07T23:39:44.853Z,92.20
2022-12-07T23:42:14.727Z,92.20
2022-12-07T23:44:43.275Z,92.20
2022-12-07T23:47:11.614Z,92.30
2022-12-07T23:49:40.218Z,92.30
2022-12-07T23:52:08.765Z,92.30
2022-12-07T23:54:36.981Z,92.40
2022-12-07T23:57:05.480Z,92.30
2022-12-07T23:59:35.071Z,92.30
